AirNav   TITAN Aviation Fuels
 
 1069 users online  

MY94 Country Haven Airport
Cloquet, Minnesota, USA

GOING TO CLOQUET?


FAA INFORMATION EFFECTIVE 01 DECEMBER 2022

Location

FAA Identifier: MY94
Lat/Long: 46-45-09.0000N 092-25-09.0000W
46-45.150000N 092-25.150000W
46.7525000,-92.4191667
(estimated)
Elevation: 1309 ft. / 399 m (estimated)
Variation: 02E (1990)
From city: 2 miles NE of CLOQUET, MN
Time zone: UTC -6 (UTC -5 during Daylight Saving Time)
Zip code: 55720

Airport Operations

Airport use: Private use, PERSONAL USE.
Activation date: 12/1992
Control tower: no
ARTCC: MINNEAPOLIS CENTER
FSS: PRINCETON FLIGHT SERVICE STATION
Attendance: UNATNDD
Segmented circle: no

Airport Communications

WX AWOS-3 at COQ (5 nm SW): 118.525 (218-879-0783)
WX ASOS at DLH (11 nm NE): PHONE 218-740-5977
WX AWOS-3 at SUW (14 nm E): 120.35 (715-394-0283)
WX AWOS-3 at DYT (16 nm E): 119.275 (218-720-4886)

Nearby radio navigation aids

VOR radial/distance  VOR name  Freq  Var
DLHr246/9.4DULUTH VORTAC112.6005E
HIBr159/34.9HIBBING VOR/DME110.8002E

 
NDB name  Hdg/Dist  Freq  Var  ID
PYKLA205/6.237900EDL -.. .-..

Airport Services

Airframe service: NONE
Powerplant service: NONE
Bottled oxygen: NONE
Bulk oxygen: NONE

Runway Information

Runway 9/27

Dimensions: 1200 x 50 ft. / 366 x 15 m
Surface: turf
RUNWAY 9  RUNWAY 27
Traffic pattern: leftleft
Obstructions: 50 ft. pline, 660 ft. from runwaynone

Airport Ownership and Management from official FAA records

Ownership: Privately-owned
Owner: DALE BURGESS
255 WEST STARK ROAD
CLOQUET, MN 55720
Phone 218-879-6559
Manager: DALE BURGESS
255 WEST STARK ROAD
CLOQUET, MN 55720
Phone 218-879-6559

Additional Remarks

FOR CD CTC MINNEAPOLIS ARTCC AT 651-463-5588.

Instrument Procedures

There are no published instrument procedures at MY94.

Some nearby airports with instrument procedures:

KCOQ - Cloquet/Carlton County Airport (5 nm SW)
KDLH - Duluth International Airport (11 nm NE)
KSUW - Richard I Bong Airport (14 nm E)
KMZH - Moose Lake Carlton County Airport (26 nm SW)
KTWM - Richard B Helgeson Airport (33 nm NE)
 
Loc | Ops | Rwys | IFR | FBO | Links
Com | Nav | Svcs | Stats | Notes
Area around MY94 (Country Haven Airport)
 
Road maps at: MapQuest Bing Google
 
Aerial photo
No photo
 
Sectional chart

 
Airport distance calculator
Flying to Country Haven Airport? Find the distance to fly.

From to MY94

Sunrise and sunset
Times for 03-Dec-2022
 Local
(UTC-6)
 Zulu
(UTC)
Morning civil twilight07:0313:03
Sunrise07:3713:37
Sunset16:2222:22
Evening civil twilight16:5622:56

Current date and time
Zulu (UTC)  04-Dec-2022 00:52:02
Local (UTC-6)  03-Dec-2022 18:52:02
 
METAR
KCOQ 
5nm SW 
040035Z AUTO 22008KT 10SM OVC090 M12/M17 A3016 RMK AO2 TSNO
KDLH 
11nm NE 
040022Z 24009KT 5SM -SN BKN042 OVC090 M12/M16 A3014 RMK AO2 P0000 T11171156
KDYT 
16nm E 
040035Z AUTO 22012KT 10SM FEW032 SCT044 BKN060 M10/M16 A3023 RMK AO2
TAF
KDLH 
11nm NE 
040001Z 0400/0424 24011KT 2SM -SN OVC035 FM040100 24010KT P6SM -SN SCT040 BKN100 FM040300 25009G16KT P6SM SCT025 SCT100 FM041900 24015G26KT P6SM BKN100 WS020/25045KT FM042300 24016G28KT P6SM BKN070 WS016/25045KT
NOTAMs
Click for the latest NOTAMs
NOTAMs are issued by the DoD/FAA and will open in a separate window not controlled by AirNav.

 

 
 

Would you like to see your business listed on this page?

 If your business provides an interesting product or service to pilots, flight crews, aircraft, or users of the Country Haven Airport, you should consider listing it here.  To start the listing process, click on the button below
 
Add a business
 

Other Pages about Country Haven Airport

Update a link
 
Copyright © AirNav, LLC. All rights reserved. Privacy Policy  Contact